Latest Weather Observations for Ngayawili (Elcho Island)

IDD60801

Issued at 9:41 pm CST Friday 15 November 2019 (issued every 10 minutes, with the page automatically refreshed every 10 minutes)

About weather observations | Map of weather stations | Latest weather observations for NT | Other Formats
Station Details ID: 014517 Name: NGAYAWILI Lat: -12.00 Lon: 135.57 Height: 8.1 m
Data from the previous 72 hours. | See also: Recent months at Ngayawili (Elcho Island)
Date/Time
CST
Temp
°C
App
Temp
°C
Dew
Point
°C
Rel
Hum
%
Delta-T
°C
Wind Press
QNH
hPa
Press
MSL
hPa
Rain since
9am
mm
Dir  Spd
km/h
Gust
km/h
Spd
kts
Gust
kts
15/09:30pm 26.6 30.2 23.1 81 2.4 E 9 11 5 6 1010.9 1010.8 0.0
15/09:00pm 26.9 31.1 23.4 81 2.4 E 7 9 4 5 1010.7 1010.6 0.0
15/08:30pm 27.5 31.9 23.5 79 2.7 ESE 6 7 3 4 1010.4 1010.3 0.0
15/08:00pm 28.3 32.7 23.4 75 3.4 ENE 6 9 3 5 1010.1 1010.0 0.0
15/07:30pm 28.7 31.9 23.1 71 3.8 NE 11 15 6 8 1009.7 1009.6 0.0
15/07:00pm 29.0 31.8 23.7 73 3.7 NE 15 22 8 12 1009.3 1009.2 0.0
15/06:30pm 29.3 31.3 24.0 73 3.7 NNE 20 28 11 15 1008.9 1008.8 0.0
15/06:00pm 29.8 31.2 24.2 72 3.9 NNE 24 30 13 16 1008.6 1008.5 0.0
15/05:30pm 30.2 31.0 24.4 71 4.1 NNE 28 32 15 17 1008.3 1008.2 0.0
15/05:00pm 30.6 31.0 24.5 70 4.3 N 30 33 16 18 1008.3 1008.2 0.0
15/04:30pm 30.8 31.9 24.9 71 4.2 N 28 32 15 17 1008.0 1007.9 0.0
15/04:00pm 31.2 32.4 25.1 70 4.3 N 28 33 15 18 1008.0 1007.9 0.0
15/03:30pm 31.4 32.3 25.3 70 4.3 N 30 35 16 19 1008.1 1008.0 0.0
15/03:00pm 31.6 31.3 24.2 65 5.2 N 33 39 18 21 1008.2 1008.1 0.0
15/02:30pm 32.0 32.9 26.1 71 4.2 N 33 39 18 21 1008.4 1008.3 0.0
15/02:00pm 31.9 31.9 24.7 65 5.1 N 33 39 18 21 1008.6 1008.5 0.0
15/01:30pm 32.0 32.8 25.1 67 4.9 N 30 33 16 18 1009.0 1008.9 0.0
15/01:00pm 31.7 32.0 24.3 65 5.2 N 30 33 16 18 1009.5 1009.4 0.0
15/12:30pm 31.9 33.5 25.2 67 4.7 N 26 30 14 16 1010.1 1010.0 0.0
15/12:00pm 31.5 33.2 24.6 67 4.8 N 24 26 13 14 1010.8 1010.7 0.0
15/11:30am 30.8 33.3 24.4 68 4.5 N 19 20 10 11 1011.0 1010.9 0.0
15/11:00am 30.4 33.5 23.6 67 4.7 NNW 13 17 7 9 1011.0 1010.9 0.0
15/10:30am 30.5 33.9 23.4 66 4.9 WNW 11 15 6 8 1011.3 1011.2 0.0
15/10:00am 30.1 33.5 23.3 67 4.7 WNW 11 13 6 7 1011.4 1011.3 0.0
15/09:30am 29.9 33.9 23.8 70 4.2 NW 9 11 5 6 1011.5 1011.4 0.0
15/09:00am 29.2 33.4 24.1 74 3.5 N 9 13 5 7 1011.4 1011.3 0.0
15/08:30am 28.8 33.1 23.7 74 3.5 NNW 7 9 4 5 1011.3 1011.2 0.0
15/08:00am 28.4 32.7 23.3 74 3.5 N 6 7 3 4 1010.9 1010.8 0.0
15/07:30am 27.8 33.3 23.4 77 3.0 CALM 0 0 0 0 1010.6 1010.5 0.0
15/07:00am 25.5 30.2 24.3 93 0.8 ESE 7 9 4 5 1010.1 1010.0 0.0
15/06:30am 23.9 28.0 23.2 96 0.5 SE 7 9 4 5 1009.3 1009.2 0.0
15/06:00am 23.2 26.8 22.4 95 0.5 ESE 7 9 4 5 1008.9 1008.8 0.0
15/05:30am 23.3 26.9 22.3 94 0.7 ESE 7 9 4 5 1008.6 1008.5 0.0
15/05:00am 23.1 26.4 21.9 93 0.8 ESE 7 9 4 5 1008.4 1008.3 0.0
15/04:30am 23.3 26.5 21.7 91 1.1 E 7 7 4 4 1008.4 1008.3 0.0
15/04:00am 24.2 27.3 21.5 85 1.8 E 7 9 4 5 1008.4 1008.3 0.0
15/03:30am 25.4 28.1 22.1 82 2.2 ENE 11 13 6 7 1008.3 1008.2 0.0
15/03:00am 25.3 28.2 21.8 81 2.3 E 9 11 5 6 1008.3 1008.2 0.0
15/02:30am 25.5 28.6 22.2 82 2.2 E 9 11 5 6 1008.1 1008.0 0.0
15/02:00am 25.8 29.2 22.7 83 2.1 E 9 11 5 6 1008.4 1008.3 0.0
15/01:30am 25.8 28.9 22.9 84 2.0 ENE 11 13 6 7 1008.8 1008.7 0.0
15/01:00am 25.5 29.3 23.4 88 1.4 ENE 9 11 5 6 1009.0 1008.9 0.0
15/12:30am 24.7 30.0 23.1 91 1.1 CALM 0 0 0 0 1009.3 1009.2 0.0
15/12:00am 24.4 29.5 22.7 90 1.1 CALM 0 0 0 0 1009.7 1009.6 0.0
 
Date/Time
CST
Temp
°C
App
Temp
°C
Dew
Point
°C
Rel
Hum
%
Delta-T
°C
Wind Press
QNH
hPa
Press
MSL
hPa
Rain since
9am
mm
Dir  Spd
km/h
Gust
km/h
Spd
kts
Gust
kts
14/11:30pm 25.5 31.3 23.9 91 1.1 CALM 0 0 0 0 1010.0 1009.9 0.0
14/11:00pm 25.5 29.9 23.4 88 1.4 ENE 6 7 3 4 1010.2 1010.1 0.0
14/10:30pm 26.2 30.9 23.9 87 1.6 E 6 7 3 4 1010.3 1010.2 0.0
14/10:00pm 26.2 30.5 23.3 84 2.0 ESE 6 7 3 4 1010.4 1010.3 0.0
14/09:30pm 26.7 30.9 23.2 81 2.4 E 6 7 3 4 1010.3 1010.2 0.0
14/09:00pm 27.0 31.0 22.8 78 2.9 ESE 6 7 3 4 1010.0 1009.9 0.0
14/08:30pm 27.4 31.3 22.6 75 3.3 ESE 6 7 3 4 1009.5 1009.4 0.0
14/08:00pm 27.9 31.4 21.9 70 4.0 ESE 6 9 3 5 1009.2 1009.1 0.0
14/07:30pm 28.6 32.1 22.1 68 4.4 E 7 11 4 6 1008.6 1008.5 0.0
14/07:00pm 29.2 32.5 21.9 64 4.9 ENE 7 9 4 5 1008.1 1008.0 0.0
14/06:30pm 29.9 33.1 22.3 63 5.2 NE 9 15 5 8 1007.9 1007.8 0.0
14/06:00pm 30.7 32.1 22.6 62 5.5 NNE 19 22 10 12 1007.8 1007.7 0.0
14/05:30pm 31.1 32.6 22.7 61 5.8 NNE 19 24 10 13 1007.6 1007.5 0.0
14/05:00pm 30.5 30.9 22.4 62 5.5 N 24 28 13 15 1007.7 1007.6 0.0
14/04:30pm 30.8 32.3 24.4 68 4.5 N 24 30 13 16 1007.8 1007.7 0.0
14/04:00pm 30.9 32.6 24.1 67 4.7 N 22 28 12 15 1008.1 1008.0 0.0
14/03:30pm 31.2 32.9 24.1 66 5.0 N 22 26 12 14 1008.4 1008.3 0.0
14/03:00pm 31.3 33.8 24.7 68 4.6 N 20 26 11 14 1008.7 1008.6 0.0
14/02:30pm 31.1 33.1 24.0 66 4.9 N 20 24 11 13 1009.1 1009.0 0.0
14/02:00pm 31.4 34.7 24.5 67 4.8 NNW 15 20 8 11 1009.5 1009.4 0.0
14/01:30pm 31.1 34.2 24.2 66 4.8 NNW 15 17 8 9 1009.9 1009.8 0.0
14/01:00pm 30.9 33.3 24.3 68 4.6 NNW 19 20 10 11 1010.4 1010.3 0.0
14/12:30pm 31.2 33.7 23.8 64 5.1 N 17 19 9 10 1011.0 1010.9 0.0
14/12:00pm 31.1 34.4 24.5 68 4.6 NNW 15 19 8 10 1011.4 1011.3 0.0
14/11:30am 30.7 33.4 24.1 68 4.6 NNW 17 19 9 10 1011.8 1011.7 0.0
14/11:00am 29.5 32.8 23.9 72 3.9 NNW 13 17 7 9 1012.2 1012.1 0.0
14/10:30am 29.8 32.9 23.5 69 4.3 NNW 13 15 7 8 1012.3 1012.2 0.0
14/10:00am 29.3 32.3 23.3 70 4.1 NNW 13 17 7 9 1012.4 1012.3 0.0
14/09:30am 29.4 31.5 23.1 69 4.3 N 17 20 9 11 1012.2 1012.1 0.0
14/09:00am 29.2 32.3 23.6 72 3.9 N 13 17 7 9 1012.1 1012.0 0.0
14/08:30am 28.7 33.2 22.9 71 4.0 N 4 7 2 4 1011.9 1011.8 0.0
14/08:00am 28.1 32.2 23.9 78 2.9 ESE 9 11 5 6 1012.0 1011.9 0.0
14/07:30am 27.0 31.5 23.9 83 2.1 SE 7 9 4 5 1011.9 1011.8 0.0
14/07:00am 25.2 29.1 23.6 91 1.1 SE 9 11 5 6 1011.3 1011.2 0.0
14/06:30am 24.0 27.6 23.0 94 0.7 E 9 9 5 5 1010.5 1010.4 0.0
14/06:00am 23.8 27.3 22.8 94 0.7 NE 9 11 5 6 1009.9 1009.8 0.0
14/05:30am 23.1 26.1 21.9 93 0.8 E 9 11 5 6 1009.8 1009.7 0.0
14/05:00am 23.3 26.5 21.7 91 1.1 ENE 7 9 4 5 1009.4 1009.3 0.0
14/04:30am 23.9 27.4 22.9 94 0.7 NE 9 13 5 7 1009.2 1009.1 0.0
14/04:00am 23.3 26.8 22.1 93 0.8 ESE 7 7 4 4 1009.1 1009.0 0.0
14/03:30am 23.9 27.6 22.2 90 1.1 E 6 9 3 5 1009.2 1009.1 0.0
14/03:00am 24.5 27.6 22.8 90 1.1 NE 11 13 6 7 1009.4 1009.3 0.0
14/02:30am 24.9 28.5 23.0 89 1.3 ENE 9 11 5 6 1009.8 1009.7 0.0
14/02:00am 25.0 28.5 22.9 88 1.4 ENE 9 11 5 6 1010.1 1010.0 0.0
14/01:30am 25.3 29.2 23.0 87 1.6 E 7 9 4 5 1010.6 1010.5 0.0
14/01:00am 25.6 29.6 23.1 86 1.7 E 7 9 4 5 1011.2 1011.1 0.0
14/12:30am 25.7 29.4 23.2 86 1.7 ESE 9 13 5 7 1011.7 1011.6 0.0
14/12:00am 25.9 30.0 23.2 85 1.8 E 7 9 4 5 1011.8 1011.7 0.0
 
Date/Time
CST
Temp
°C
App
Temp
°C
Dew
Point
°C
Rel
Hum
%
Delta-T
°C
Wind Press
QNH
hPa
Press
MSL
hPa
Rain since
9am
mm
Dir  Spd
km/h
Gust
km/h
Spd
kts
Gust
kts
13/11:30pm 26.2 30.4 23.5 85 1.8 ESE 7 9 4 5 1012.3 1012.2 0.0
13/11:00pm 26.6 30.9 23.7 84 2.0 ENE 7 13 4 7 1012.4 1012.3 0.0
13/10:30pm 26.6 31.0 23.5 83 2.1 E 6 9 3 5 1012.6 1012.5 0.0
13/10:00pm 26.9 31.1 23.4 81 2.4 ENE 7 13 4 7 1012.3 1012.2 0.0
13/09:30pm 27.3 31.5 23.5 80 2.6 ENE 7 9 4 5 1012.0 1011.9 0.0
13/09:00pm 27.6 31.4 23.4 78 2.9 NE 9 13 5 7 1011.7 1011.6 0.0
13/08:30pm 27.8 31.2 23.4 77 3.0 NE 11 15 6 8 1011.4 1011.3 0.0
13/08:00pm 27.9 31.3 23.3 76 3.1 NE 11 17 6 9 1010.7 1010.6 0.0
13/07:30pm 28.1 31.0 23.2 74 3.4 NE 13 19 7 10 1010.5 1010.4 0.0
13/07:00pm 28.3 31.2 23.2 74 3.5 NE 13 19 7 10 1010.1 1010.0 0.0
13/06:30pm 28.6 30.2 23.3 73 3.6 NNE 20 24 11 13 1009.7 1009.6 0.0
13/06:00pm 29.0 30.7 23.4 72 3.9 NNE 20 26 11 14 1009.5 1009.4 0.0
13/05:30pm 29.4 30.2 23.1 69 4.3 NNE 24 30 13 16 1009.2 1009.1 0.0
13/05:00pm 30.0 30.6 23.4 67 4.5 N 26 32 14 17 1009.2 1009.1 0.0
13/04:30pm 30.1 30.7 23.5 67 4.6 N 26 30 14 16 1009.3 1009.2 0.0
13/04:00pm 30.3 31.0 23.0 65 5.0 N 24 28 13 15 1009.5 1009.4 0.0
13/03:30pm 30.7 32.0 23.4 65 5.0 N 22 28 12 15 1009.6 1009.5 0.0
13/03:00pm 30.8 31.5 22.9 62 5.4 N 24 28 13 15 1009.8 1009.7 0.0
13/02:30pm 31.2 31.4 22.8 61 5.8 N 26 30 14 16 1010.3 1010.2 0.0
13/02:00pm 31.6 32.3 23.7 63 5.5 N 26 30 14 16 1010.5 1010.4 0.0
13/01:30pm 31.3 32.0 22.9 61 5.8 N 24 28 13 15 1010.8 1010.7 0.0
13/01:00pm 31.3 31.5 22.0 57 6.3 N 24 30 13 16 1011.3 1011.2 0.0
13/12:30pm 31.1 31.6 22.7 61 5.7 N 24 26 13 14 1011.9 1011.8 0.0
13/12:00pm 30.9 32.1 22.2 59 5.9 N 19 22 10 12 1012.3 1012.2 0.0
13/11:30am 30.7 32.6 22.0 59 5.9 NNW 15 20 8 11 1012.7 1012.6 0.0
13/11:00am 30.2 31.9 21.0 58 6.1 NNW 13 17 7 9 1013.0 1012.9 0.0
13/10:30am 30.2 33.1 21.8 60 5.7 NW 9 13 5 7 1013.4 1013.3 0.0
13/10:00am 30.3 32.9 21.9 60 5.7 NW 11 15 6 8 1013.6 1013.5 0.0
13/09:30am 29.4 31.8 21.6 63 5.2 NW 11 13 6 7 1013.7 1013.6 0.0
13/09:00am 29.3 32.6 22.5 67 4.6 NW 9 13 5 7 1013.6 1013.5 0.0
13/08:30am 28.6 31.9 21.9 67 4.5 NW 7 11 4 6 1013.4 1013.3 0.0
13/08:00am 28.0 31.3 21.5 67 4.3 N 6 7 3 4 1013.2 1013.1 0.0
13/07:30am 26.9 31.3 21.4 72 3.7 CALM 0 0 0 0 1013.0 1012.9 0.0
13/07:00am 25.0 29.2 23.2 90 1.2 ESE 6 7 3 4 1012.8 1012.7 0.0
13/06:30am 23.2 26.6 22.0 93 0.8 SE 7 7 4 4 1012.6 1012.5 0.0
13/06:00am 22.8 25.7 21.8 94 0.7 SSE 9 11 5 6 1012.0 1011.9 0.0
13/05:30am 22.7 25.6 21.7 94 0.7 SSE 9 11 5 6 1011.6 1011.5 0.0
13/05:00am 22.7 25.9 21.7 94 0.7 SE 7 9 4 5 1011.2 1011.1 0.0
13/04:30am 22.5 25.6 21.5 94 0.7 ESE 7 7 4 4 1010.9 1010.8 0.0
13/04:00am 22.4 25.4 21.2 93 0.8 ESE 7 9 4 5 1010.8 1010.7 0.0
13/03:30am 22.9 26.0 21.5 92 0.9 ESE 7 9 4 5 1010.7 1010.6 0.0
13/03:00am 23.5 26.7 21.6 89 1.3 ESE 7 7 4 4 1010.6 1010.5 0.0
13/02:30am 24.5 28.0 21.8 85 1.8 E 6 9 3 5 1010.8 1010.7 0.0
13/02:00am 25.0 28.1 22.1 84 1.9 ENE 9 15 5 8 1011.1 1011.0 0.0
13/01:30am 25.2 28.2 21.9 82 2.2 ENE 9 15 5 8 1011.5 1011.4 0.0
13/01:00am 25.3 28.0 22.2 83 2.1 ENE 11 19 6 10 1012.0 1011.9 0.0
13/12:30am 25.1 28.1 22.0 83 2.1 ENE 9 15 5 8 1012.6 1012.5 0.0
13/12:00am 25.1 28.4 21.8 82 2.2 ENE 7 11 4 6 1013.2 1013.1 0.0
 
Date/Time
CST
Temp
°C
App
Temp
°C
Dew
Point
°C
Rel
Hum
%
Delta-T
°C
Wind Press
QNH
hPa
Press
MSL
hPa
Rain since
9am
mm
Dir  Spd
km/h
Gust
km/h
Spd
kts
Gust
kts
12/11:30pm 25.5 28.4 21.8 80 2.5 E 9 11 5 6 1013.4 1013.3 0.0
12/11:00pm 25.8 28.8 21.9 79 2.6 E 9 15 5 8 1013.6 1013.5 0.0
12/10:30pm 26.0 29.1 22.1 79 2.6 ENE 9 15 5 8 1013.3 1013.2 0.0
12/10:00pm 26.1 29.2 22.2 79 2.6 E 9 17 5 9 1013.1 1013.0 0.0

Other formats

Comma delimited format used in spreadsheet applications
http://www.bom.gov.au/fwo/IDD60801/IDD60801.95146.axf

JavaScript Object Notation format (JSON) in row-major order
http://www.bom.gov.au/fwo/IDD60801/IDD60801.95146.json

Data quality

Most of these data are generated automatically and are frequently updated. Quality checks on data are not normally performed. It is possible for incorrect values to appear. Refer to information at About Latest Weather Observations and please check the disclaimer before using these data.